sensor_id;sensor_type;location;lat;lon;timestamp;P1;durP1;ratioP1;P2;durP2;ratioP2
1054;SDS011;516;51.482;7.120;2023-04-19T00:01:59;23.90;;;21.60;;
1054;SDS011;516;51.482;7.120;2023-04-19T00:07:47;25.83;;;21.37;;
1054;SDS011;516;51.482;7.120;2023-04-19T00:13:35;22.97;;;20.70;;
1054;SDS011;516;51.482;7.120;2023-04-19T00:19:23;23.40;;;21.20;;
1054;SDS011;516;51.482;7.120;2023-04-19T00:25:11;23.03;;;20.80;;
1054;SDS011;516;51.482;7.120;2023-04-19T00:30:59;22.60;;;20.20;;
1054;SDS011;516;51.482;7.120;2023-04-19T00:46:40;21.70;;;19.67;;
1054;SDS011;516;51.482;7.120;2023-04-19T00:52:29;22.60;;;20.30;;
1054;SDS011;516;51.482;7.120;2023-04-19T00:58:18;23.90;;;21.50;;
1054;SDS011;516;51.482;7.120;2023-04-19T01:04:07;23.00;;;20.40;;
1054;SDS011;516;51.482;7.120;2023-04-19T01:09:55;21.40;;;19.30;;
1054;SDS011;516;51.482;7.120;2023-04-19T01:15:42;22.73;;;20.33;;
1054;SDS011;516;51.482;7.120;2023-04-19T01:21:30;22.37;;;20.17;;
1054;SDS011;516;51.482;7.120;2023-04-19T01:27:18;24.47;;;21.27;;
1054;SDS011;516;51.482;7.120;2023-04-19T01:33:06;24.53;;;20.70;;
1054;SDS011;516;51.482;7.120;2023-04-19T01:38:48;23.70;;;21.20;;
1054;SDS011;516;51.482;7.120;2023-04-19T01:44:36;23.10;;;20.80;;
1054;SDS011;516;51.482;7.120;2023-04-19T01:50:23;24.17;;;21.73;;
1054;SDS011;516;51.482;7.120;2023-04-19T01:56:11;22.40;;;20.10;;
1054;SDS011;516;51.482;7.120;2023-04-19T02:01:59;24.13;;;21.60;;
1054;SDS011;516;51.482;7.120;2023-04-19T02:07:47;22.77;;;20.43;;
1054;SDS011;516;51.482;7.120;2023-04-19T02:13:35;21.60;;;19.43;;
1054;SDS011;516;51.482;7.120;2023-04-19T02:19:22;22.00;;;19.70;;
1054;SDS011;516;51.482;7.120;2023-04-19T02:25:10;19.63;;;17.67;;
1054;SDS011;516;51.482;7.120;2023-04-19T02:30:58;20.67;;;17.90;;
1054;SDS011;516;51.482;7.120;2023-04-19T02:46:46;19.90;;;17.83;;
1054;SDS011;516;51.482;7.120;2023-04-19T02:53:12;16.97;;;15.07;;
1054;SDS011;516;51.482;7.120;2023-04-19T02:59:00;16.27;;;14.73;;
1054;SDS011;516;51.482;7.120;2023-04-19T03:04:48;14.93;;;13.83;;
1054;SDS011;516;51.482;7.120;2023-04-19T03:10:36;16.20;;;14.10;;
1054;SDS011;516;51.482;7.120;2023-04-19T03:16:24;14.73;;;13.43;;
1054;SDS011;516;51.482;7.120;2023-04-19T03:22:12;16.43;;;15.00;;
1054;SDS011;516;51.482;7.120;2023-04-19T03:27:59;16.23;;;14.83;;
1054;SDS011;516;51.482;7.120;2023-04-19T03:33:47;15.63;;;14.30;;
1054;SDS011;516;51.482;7.120;2023-04-19T03:36:23;15.20;;;13.90;;
1054;SDS011;516;51.482;7.120;2023-04-19T03:38:49;13.87;;;12.83;;
1054;SDS011;516;51.482;7.120;2023-04-19T03:44:36;14.80;;;13.70;;
1054;SDS011;516;51.482;7.120;2023-04-19T03:50:24;14.37;;;13.27;;
1054;SDS011;516;51.482;7.120;2023-04-19T03:56:11;13.30;;;12.30;;
1054;SDS011;516;51.482;7.120;2023-04-19T04:01:59;12.30;;;11.60;;
1054;SDS011;516;51.482;7.120;2023-04-19T04:07:47;13.17;;;12.27;;
1054;SDS011;516;51.482;7.120;2023-04-19T04:13:35;12.53;;;11.70;;
1054;SDS011;516;51.482;7.120;2023-04-19T04:19:23;14.17;;;13.07;;
1054;SDS011;516;51.482;7.120;2023-04-19T04:25:11;13.40;;;12.30;;
1054;SDS011;516;51.482;7.120;2023-04-19T04:31:01;13.97;;;12.87;;
1054;SDS011;516;51.482;7.120;2023-04-19T04:46:39;15.23;;;14.10;;
1054;SDS011;516;51.482;7.120;2023-04-19T04:52:27;16.17;;;15.07;;
1054;SDS011;516;51.482;7.120;2023-04-19T04:58:15;15.40;;;14.20;;
1054;SDS011;516;51.482;7.120;2023-04-19T05:04:03;15.80;;;14.60;;
1054;SDS011;516;51.482;7.120;2023-04-19T05:09:50;15.40;;;14.10;;
1054;SDS011;516;51.482;7.120;2023-04-19T05:15:38;16.53;;;15.03;;
1054;SDS011;516;51.482;7.120;2023-04-19T05:21:26;14.57;;;13.37;;
1054;SDS011;516;51.482;7.120;2023-04-19T05:27:13;17.17;;;15.07;;
1054;SDS011;516;51.482;7.120;2023-04-19T05:33:01;14.97;;;13.67;;
1054;SDS011;516;51.482;7.120;2023-04-19T05:38:48;16.13;;;14.90;;
1054;SDS011;516;51.482;7.120;2023-04-19T05:44:17;17.70;;;16.13;;
1054;SDS011;516;51.482;7.120;2023-04-19T05:50:05;17.37;;;15.40;;
1054;SDS011;516;51.482;7.120;2023-04-19T05:55:52;17.30;;;15.70;;
1054;SDS011;516;51.482;7.120;2023-04-19T06:01:40;17.93;;;16.53;;
1054;SDS011;516;51.482;7.120;2023-04-19T06:07:28;17.20;;;15.87;;
1054;SDS011;516;51.482;7.120;2023-04-19T06:13:16;18.90;;;17.37;;
1054;SDS011;516;51.482;7.120;2023-04-19T06:19:04;17.87;;;16.40;;
1054;SDS011;516;51.482;7.120;2023-04-19T06:24:53;17.77;;;16.43;;
1054;SDS011;516;51.482;7.120;2023-04-19T06:30:41;17.30;;;16.20;;
1054;SDS011;516;51.482;7.120;2023-04-19T06:43:14;18.00;;;17.00;;
1054;SDS011;516;51.482;7.120;2023-04-19T06:49:02;17.13;;;16.03;;
1054;SDS011;516;51.482;7.120;2023-04-19T06:54:50;19.00;;;17.90;;
1054;SDS011;516;51.482;7.120;2023-04-19T07:00:38;17.77;;;16.57;;
1054;SDS011;516;51.482;7.120;2023-04-19T07:06:25;18.33;;;16.90;;
1054;SDS011;516;51.482;7.120;2023-04-19T07:12:15;18.17;;;16.97;;
1054;SDS011;516;51.482;7.120;2023-04-19T07:18:03;18.13;;;16.83;;
1054;SDS011;516;51.482;7.120;2023-04-19T07:23:52;18.70;;;17.23;;
1054;SDS011;516;51.482;7.120;2023-04-19T07:29:39;19.67;;;18.20;;
1054;SDS011;516;51.482;7.120;2023-04-19T07:35:27;16.73;;;15.73;;
1054;SDS011;516;51.482;7.120;2023-04-19T07:41:15;17.60;;;15.93;;
1054;SDS011;516;51.482;7.120;2023-04-19T07:47:04;17.60;;;16.50;;
1054;SDS011;516;51.482;7.120;2023-04-19T07:52:52;16.63;;;15.47;;
1054;SDS011;516;51.482;7.120;2023-04-19T07:58:40;19.00;;;17.60;;
1054;SDS011;516;51.482;7.120;2023-04-19T08:04:27;18.30;;;17.10;;
1054;SDS011;516;51.482;7.120;2023-04-19T08:10:16;16.03;;;15.13;;
1054;SDS011;516;51.482;7.120;2023-04-19T08:16:05;19.10;;;17.90;;
1054;SDS011;516;51.482;7.120;2023-04-19T08:21:52;18.37;;;16.70;;
1054;SDS011;516;51.482;7.120;2023-04-19T08:27:39;17.53;;;16.57;;
1054;SDS011;516;51.482;7.120;2023-04-19T08:33:27;17.57;;;16.27;;
1054;SDS011;516;51.482;7.120;2023-04-19T08:38:48;16.00;;;15.00;;
1054;SDS011;516;51.482;7.120;2023-04-19T08:44:36;18.03;;;16.93;;
1054;SDS011;516;51.482;7.120;2023-04-19T08:50:27;17.27;;;16.20;;
1054;SDS011;516;51.482;7.120;2023-04-19T08:56:15;16.93;;;15.73;;
1054;SDS011;516;51.482;7.120;2023-04-19T09:02:03;17.20;;;16.20;;
1054;SDS011;516;51.482;7.120;2023-04-19T09:07:51;17.97;;;16.60;;
1054;SDS011;516;51.482;7.120;2023-04-19T09:13:39;16.00;;;15.10;;
1054;SDS011;516;51.482;7.120;2023-04-19T09:19:43;17.77;;;16.37;;
1054;SDS011;516;51.482;7.120;2023-04-19T09:26:09;16.37;;;15.67;;
1054;SDS011;516;51.482;7.120;2023-04-19T09:32:00;16.57;;;15.53;;
1054;SDS011;516;51.482;7.120;2023-04-19T09:41:09;16.27;;;15.40;;
1054;SDS011;516;51.482;7.120;2023-04-19T09:46:57;16.40;;;15.50;;
1054;SDS011;516;51.482;7.120;2023-04-19T09:52:45;16.27;;;15.37;;
1054;SDS011;516;51.482;7.120;2023-04-19T09:58:34;16.73;;;15.83;;
1054;SDS011;516;51.482;7.120;2023-04-19T10:04:22;17.03;;;16.03;;
1054;SDS011;516;51.482;7.120;2023-04-19T10:10:11;18.00;;;17.10;;
1054;SDS011;516;51.482;7.120;2023-04-19T10:16:01;16.70;;;15.60;;
1054;SDS011;516;51.482;7.120;2023-04-19T10:21:50;17.10;;;16.10;;
1054;SDS011;516;51.482;7.120;2023-04-19T10:27:41;18.13;;;17.00;;
1054;SDS011;516;51.482;7.120;2023-04-19T10:33:35;17.20;;;16.10;;
1054;SDS011;516;51.482;7.120;2023-04-19T10:39:03;17.17;;;16.10;;
1054;SDS011;516;51.482;7.120;2023-04-19T10:45:35;16.10;;;14.83;;
1054;SDS011;516;51.482;7.120;2023-04-19T10:57:15;16.10;;;15.10;;
1054;SDS011;516;51.482;7.120;2023-04-19T11:09:35;17.07;;;16.17;;
1054;SDS011;516;51.482;7.120;2023-04-19T11:15:25;17.47;;;16.37;;
1054;SDS011;516;51.482;7.120;2023-04-19T11:21:12;18.20;;;16.93;;
1054;SDS011;516;51.482;7.120;2023-04-19T11:27:00;17.50;;;16.60;;
1054;SDS011;516;51.482;7.120;2023-04-19T11:32:55;17.53;;;16.53;;
1054;SDS011;516;51.482;7.120;2023-04-19T11:38:47;17.30;;;16.20;;
1054;SDS011;516;51.482;7.120;2023-04-19T11:47:56;16.97;;;16.03;;
1054;SDS011;516;51.482;7.120;2023-04-19T11:53:44;23.87;;;16.83;;
1054;SDS011;516;51.482;7.120;2023-04-19T11:59:33;18.80;;;17.60;;
1054;SDS011;516;51.482;7.120;2023-04-19T12:05:22;17.33;;;16.43;;
1054;SDS011;516;51.482;7.120;2023-04-19T12:11:10;16.77;;;15.87;;
1054;SDS011;516;51.482;7.120;2023-04-19T12:17:11;16.77;;;15.87;;
1054;SDS011;516;51.482;7.120;2023-04-19T12:23:01;17.90;;;16.70;;
1054;SDS011;516;51.482;7.120;2023-04-19T12:28:50;18.53;;;17.30;;
1054;SDS011;516;51.482;7.120;2023-04-19T12:34:37;19.73;;;18.63;;
1054;SDS011;516;51.482;7.120;2023-04-19T12:40:03;18.77;;;17.77;;
1054;SDS011;516;51.482;7.120;2023-04-19T12:45:50;18.83;;;17.83;;
1054;SDS011;516;51.482;7.120;2023-04-19T12:51:38;20.20;;;18.47;;
1054;SDS011;516;51.482;7.120;2023-04-19T12:57:28;19.73;;;18.53;;
1054;SDS011;516;51.482;7.120;2023-04-19T13:03:16;18.13;;;17.23;;
1054;SDS011;516;51.482;7.120;2023-04-19T13:09:03;18.80;;;17.80;;
1054;SDS011;516;51.482;7.120;2023-04-19T13:14:51;18.83;;;17.43;;
1054;SDS011;516;51.482;7.120;2023-04-19T13:20:39;18.07;;;16.40;;
1054;SDS011;516;51.482;7.120;2023-04-19T13:26:27;18.53;;;17.40;;
1054;SDS011;516;51.482;7.120;2023-04-19T13:32:14;18.87;;;17.47;;
1054;SDS011;516;51.482;7.120;2023-04-19T13:47:56;17.23;;;16.43;;
1054;SDS011;516;51.482;7.120;2023-04-19T13:53:43;17.50;;;16.57;;
1054;SDS011;516;51.482;7.120;2023-04-19T13:59:31;17.70;;;16.80;;
1054;SDS011;516;51.482;7.120;2023-04-19T14:05:19;17.90;;;16.90;;
1054;SDS011;516;51.482;7.120;2023-04-19T14:11:07;16.83;;;15.97;;
1054;SDS011;516;51.482;7.120;2023-04-19T14:16:54;17.50;;;16.60;;
1054;SDS011;516;51.482;7.120;2023-04-19T14:22:42;18.00;;;16.77;;
1054;SDS011;516;51.482;7.120;2023-04-19T14:28:31;16.50;;;15.60;;
1054;SDS011;516;51.482;7.120;2023-04-19T14:34:19;16.93;;;16.00;;
1054;SDS011;516;51.482;7.120;2023-04-19T14:40:07;16.70;;;16.00;;
1054;SDS011;516;51.482;7.120;2023-04-19T14:45:51;16.87;;;15.93;;
1054;SDS011;516;51.482;7.120;2023-04-19T14:51:39;17.83;;;16.73;;
1054;SDS011;516;51.482;7.120;2023-04-19T14:57:27;18.37;;;17.00;;
1054;SDS011;516;51.482;7.120;2023-04-19T15:03:15;17.20;;;16.10;;
1054;SDS011;516;51.482;7.120;2023-04-19T15:09:04;18.50;;;17.47;;
1054;SDS011;516;51.482;7.120;2023-04-19T15:14:51;18.50;;;17.40;;
1054;SDS011;516;51.482;7.120;2023-04-19T15:20:40;18.33;;;17.33;;
1054;SDS011;516;51.482;7.120;2023-04-19T15:26:28;19.40;;;18.10;;
1054;SDS011;516;51.482;7.120;2023-04-19T15:32:15;16.97;;;15.97;;
1054;SDS011;516;51.482;7.120;2023-04-19T15:38:03;16.33;;;15.33;;
1054;SDS011;516;51.482;7.120;2023-04-19T15:47:13;16.27;;;15.47;;
1054;SDS011;516;51.482;7.120;2023-04-19T15:53:00;17.17;;;16.17;;
1054;SDS011;516;51.482;7.120;2023-04-19T15:58:48;17.47;;;16.33;;
1054;SDS011;516;51.482;7.120;2023-04-19T16:04:36;16.23;;;15.27;;
1054;SDS011;516;51.482;7.120;2023-04-19T16:10:24;16.13;;;15.43;;
1054;SDS011;516;51.482;7.120;2023-04-19T16:16:11;15.67;;;14.80;;
1054;SDS011;516;51.482;7.120;2023-04-19T16:21:59;15.87;;;14.90;;
1054;SDS011;516;51.482;7.120;2023-04-19T16:27:51;15.57;;;14.70;;
1054;SDS011;516;51.482;7.120;2023-04-19T16:33:39;16.50;;;15.60;;
1054;SDS011;516;51.482;7.120;2023-04-19T16:39:27;16.60;;;15.60;;
1054;SDS011;516;51.482;7.120;2023-04-19T16:45:04;16.50;;;15.60;;
1054;SDS011;516;51.482;7.120;2023-04-19T16:50:52;15.77;;;15.07;;
1054;SDS011;516;51.482;7.120;2023-04-19T16:56:40;17.43;;;16.43;;
1054;SDS011;516;51.482;7.120;2023-04-19T17:02:28;16.60;;;15.80;;
1054;SDS011;516;51.482;7.120;2023-04-19T17:08:16;15.93;;;15.13;;
1054;SDS011;516;51.482;7.120;2023-04-19T17:14:03;16.97;;;16.00;;
1054;SDS011;516;51.482;7.120;2023-04-19T17:19:52;16.57;;;15.67;;
1054;SDS011;516;51.482;7.120;2023-04-19T17:25:40;16.80;;;15.90;;
1054;SDS011;516;51.482;7.120;2023-04-19T17:31:09;17.27;;;16.27;;
1054;SDS011;516;51.482;7.120;2023-04-19T17:36:57;16.33;;;15.43;;
1054;SDS011;516;51.482;7.120;2023-04-19T17:49:30;18.30;;;17.10;;
1054;SDS011;516;51.482;7.120;2023-04-19T17:55:17;17.80;;;16.67;;
1054;SDS011;516;51.482;7.120;2023-04-19T18:01:05;19.50;;;18.20;;
1054;SDS011;516;51.482;7.120;2023-04-19T18:06:54;18.63;;;17.43;;
1054;SDS011;516;51.482;7.120;2023-04-19T18:12:42;17.00;;;16.10;;
1054;SDS011;516;51.482;7.120;2023-04-19T18:18:30;17.17;;;16.27;;
1054;SDS011;516;51.482;7.120;2023-04-19T18:24:18;18.73;;;17.73;;
1054;SDS011;516;51.482;7.120;2023-04-19T18:30:06;17.63;;;16.70;;
1054;SDS011;516;51.482;7.120;2023-04-19T18:35:54;18.10;;;17.00;;
1054;SDS011;516;51.482;7.120;2023-04-19T18:41:42;18.87;;;17.70;;
1054;SDS011;516;51.482;7.120;2023-04-19T18:47:30;18.37;;;17.17;;
1054;SDS011;516;51.482;7.120;2023-04-19T18:53:18;18.90;;;17.53;;
1054;SDS011;516;51.482;7.120;2023-04-19T18:59:06;18.93;;;17.87;;
1054;SDS011;516;51.482;7.120;2023-04-19T19:04:53;19.13;;;18.07;;
1054;SDS011;516;51.482;7.120;2023-04-19T19:10:41;17.33;;;16.40;;
1054;SDS011;516;51.482;7.120;2023-04-19T19:16:29;18.40;;;17.03;;
1054;SDS011;516;51.482;7.120;2023-04-19T19:22:17;18.80;;;17.40;;
1054;SDS011;516;51.482;7.120;2023-04-19T19:28:05;19.47;;;17.60;;
1054;SDS011;516;51.482;7.120;2023-04-19T19:33:53;19.53;;;18.13;;
1054;SDS011;516;51.482;7.120;2023-04-19T19:39:42;18.43;;;17.33;;
1054;SDS011;516;51.482;7.120;2023-04-19T19:45:04;19.20;;;17.90;;
1054;SDS011;516;51.482;7.120;2023-04-19T19:50:53;19.03;;;17.93;;
1054;SDS011;516;51.482;7.120;2023-04-19T19:56:41;18.43;;;17.43;;
1054;SDS011;516;51.482;7.120;2023-04-19T20:02:28;19.33;;;17.73;;
1054;SDS011;516;51.482;7.120;2023-04-19T20:08:16;17.70;;;16.70;;
1054;SDS011;516;51.482;7.120;2023-04-19T20:14:04;18.60;;;17.50;;
1054;SDS011;516;51.482;7.120;2023-04-19T20:19:52;18.90;;;17.57;;
1054;SDS011;516;51.482;7.120;2023-04-19T20:25:40;19.07;;;17.97;;
1054;SDS011;516;51.482;7.120;2023-04-19T20:31:27;18.40;;;17.30;;
1054;SDS011;516;51.482;7.120;2023-04-19T20:37:15;18.90;;;17.60;;
1054;SDS011;516;51.482;7.120;2023-04-19T20:52:58;19.00;;;17.70;;
1054;SDS011;516;51.482;7.120;2023-04-19T20:58:46;17.83;;;16.53;;
1054;SDS011;516;51.482;7.120;2023-04-19T21:04:34;19.47;;;18.07;;
1054;SDS011;516;51.482;7.120;2023-04-19T21:10:21;18.60;;;17.50;;
1054;SDS011;516;51.482;7.120;2023-04-19T21:16:09;18.77;;;17.70;;
1054;SDS011;516;51.482;7.120;2023-04-19T21:21:57;20.27;;;18.67;;
1054;SDS011;516;51.482;7.120;2023-04-19T21:27:45;19.40;;;18.10;;
1054;SDS011;516;51.482;7.120;2023-04-19T21:33:33;19.10;;;17.70;;
1054;SDS011;516;51.482;7.120;2023-04-19T21:39:20;18.57;;;17.37;;
1054;SDS011;516;51.482;7.120;2023-04-19T21:45:03;18.93;;;17.87;;
1054;SDS011;516;51.482;7.120;2023-04-19T21:50:52;18.87;;;17.73;;
1054;SDS011;516;51.482;7.120;2023-04-19T21:56:39;18.80;;;17.80;;
1054;SDS011;516;51.482;7.120;2023-04-19T22:02:27;19.77;;;18.40;;
1054;SDS011;516;51.482;7.120;2023-04-19T22:08:14;18.57;;;17.57;;
1054;SDS011;516;51.482;7.120;2023-04-19T22:14:04;18.90;;;17.43;;
1054;SDS011;516;51.482;7.120;2023-04-19T22:19:52;18.70;;;17.70;;
1054;SDS011;516;51.482;7.120;2023-04-19T22:25:40;19.37;;;18.20;;
1054;SDS011;516;51.482;7.120;2023-04-19T22:31:28;19.33;;;17.97;;
1054;SDS011;516;51.482;7.120;2023-04-19T22:37:15;18.23;;;17.43;;
1054;SDS011;516;51.482;7.120;2023-04-19T22:52:57;19.10;;;17.57;;
1054;SDS011;516;51.482;7.120;2023-04-19T22:58:45;17.47;;;16.50;;
1054;SDS011;516;51.482;7.120;2023-04-19T23:04:33;18.50;;;17.50;;
1054;SDS011;516;51.482;7.120;2023-04-19T23:10:21;18.80;;;17.70;;
1054;SDS011;516;51.482;7.120;2023-04-19T23:16:09;20.17;;;18.67;;
1054;SDS011;516;51.482;7.120;2023-04-19T23:21:57;18.77;;;17.77;;
1054;SDS011;516;51.482;7.120;2023-04-19T23:27:45;18.87;;;17.87;;
1054;SDS011;516;51.482;7.120;2023-04-19T23:33:32;18.63;;;17.40;;
1054;SDS011;516;51.482;7.120;2023-04-19T23:39:20;18.77;;;17.53;;
1054;SDS011;516;51.482;7.120;2023-04-19T23:45:04;18.90;;;17.90;;
1054;SDS011;516;51.482;7.120;2023-04-19T23:50:52;19.70;;;18.47;;
1054;SDS011;516;51.482;7.120;2023-04-19T23:56:40;19.77;;;18.47;;
